Flight Track Log - Related Links

Times and Time Zones

All times are in EDT time to prevent confusion due to time zone crossing. See the KBA204 flight status page for this flight to view local times or setup timezone preferences in your user account.

Time Position Orientation Groundspeed Altitude Reporting Facility
EDT Latitude Longitude Course Direction KTS MPH feet Rate Location/Type
Sun 11:45:42 PM 62.4667 -114.4833 293° West 30 35 700  Level Edmonton Center
Sun 11:46:42 PM 62.4833 -114.5667 293° West 110 127 2,200 1,550 Climbing Edmonton Center
Sun 11:47:42 PM 62.5000 -114.6500 293° West 150 173 3,800 1,650 Climbing Edmonton Center
Sun 11:48:42 PM 62.5333 -114.7000 325° Northwest 150 173 5,500 1,700 Climbing Edmonton Center
Sun 11:49:42 PM 62.5500 -114.7833 293° West 150 173 7,200 1,550 Climbing Edmonton Center
Sun 11:50:42 PM 62.5833 -114.8167 335° Northwest 150 173 8,600 1,450 Climbing Edmonton Center
Sun 11:51:42 PM 62.6167 -114.9000 311° West 150 173 10,100 1,300 Climbing Edmonton Center
Sun 11:52:42 PM 62.6500 -114.9833 311° West 160 184 11,200 1,100 Climbing Edmonton Center
Sun 11:53:42 PM 62.6667 -115.0333 306° West 180 207 12,300 1,050 Climbing Edmonton Center
Sun 11:54:42 PM 62.7167 -115.1333 318° Northwest 180 207 13,300 900 Climbing Edmonton Center
Sun 11:55:42 PM 62.7500 -115.2167 311° West 180 207 14,100 850 Climbing Edmonton Center
Sun 11:56:42 PM 62.7833 -115.3000 311° West 190 219 15,000 800 Climbing Edmonton Center
Sun 11:57:42 PM 62.8167 -115.3833 311° West 180 207 15,700 700 Climbing Edmonton Center
Sun 11:58:42 PM 62.8667 -115.4500 329° Northwest 190 219 16,400 800 Climbing Edmonton Center
Sun 11:59:42 PM 62.9000 -115.5333 311° West 180 207 17,300 950 Climbing Edmonton Center
Mon 12:00:42 AM 62.9167 -115.6167 294° West 180 207 18,300 950 Climbing Edmonton Center
Mon 12:01:42 AM 62.9667 -115.7000 323° Northwest 170 196 19,200 900 Climbing Edmonton Center
Mon 12:02:42 AM 63.0000 -115.7500 326° Northwest 170 196 20,100 850 Climbing Edmonton Center
Mon 12:03:42 AM 63.0333 -115.8333 311° West 160 184 20,900 800 Climbing Edmonton Center
Mon 12:04:42 AM 63.0500 -115.8833 306° West 160 184 21,700 800 Climbing Edmonton Center
Mon 12:05:42 AM 63.0833 -115.9833 306° West 160 184 22,500 650 Climbing Edmonton Center
Mon 12:06:42 AM 63.1333 -116.0667 323° Northwest 160 184 23,000 500 Climbing Edmonton Center
Mon 12:07:42 AM 63.1667 -116.1167 326° Northwest 160 184 23,500 450 Climbing Edmonton Center
Mon 12:08:42 AM 63.1833 -116.2000 294° West 170 196 23,900 300 Climbing Edmonton Center
Mon 12:09:42 AM 63.2167 -116.2833 312° West 180 207 24,100 50 Climbing Edmonton Center
Mon 12:10:42 AM 63.2500 -116.3833 307° West 190 219 24,000 -50 Descending Edmonton Center
Mon 12:11:42 AM 63.2833 -116.4667 312° West 210 242 24,000 50 Level Edmonton Center
Mon 12:12:42 AM 63.3333 -116.5667 318° Northwest 210 242 24,100  Climbing Edmonton Center
Mon 12:13:42 AM 63.3667 -116.6667 307° West 210 242 24,000 -100 Descending Edmonton Center
Mon 12:14:42 AM 63.4167 -116.7500 323° Northwest 210 242 23,900  Descending Edmonton Center
Mon 12:15:42 AM 63.4667 -116.8500 318° Northwest 210 242 24,000 50 Climbing Edmonton Center
Mon 12:16:42 AM 63.5000 -116.9833 299° West 210 242 24,000  Level Edmonton Center
Mon 12:17:42 AM 63.5500 -117.0833 318° Northwest 210 242 24,000  Level Edmonton Center
Mon 12:18:42 AM 63.5833 -117.1667 312° West 210 242 24,000  Level Edmonton Center
Mon 12:19:42 AM 63.6167 -117.2667 307° West 210 242 24,000  Level Edmonton Center
Mon 12:20:42 AM 63.6667 -117.3667 318° Northwest 210 242 24,000  Level Edmonton Center
Mon 12:21:42 AM 63.7000 -117.4500 312° West 220 253 24,000  Level Edmonton Center
Mon 12:22:42 AM 63.7500 -117.5500 319° Northwest 220 253 24,000  Level Edmonton Center
Mon 12:23:42 AM 63.7833 -117.6500 307° West 220 253 24,000  Level Edmonton Center
Mon 12:24:42 AM 63.8333 -117.7500 319° Northwest 210 242 24,000  Level Edmonton Center
Mon 12:25:42 AM 63.8500 -117.8833 286° West 210 242 24,000  Level Edmonton Center
Mon 12:26:42 AM 63.9000 -117.9667 324° Northwest 210 242 24,000  Level Edmonton Center
Mon 12:27:42 AM 63.9333 -118.0667 307° West 210 242 24,000  Level Edmonton Center
Mon 12:28:42 AM 63.9833 -118.1667 319° Northwest 210 242 24,000  Level Edmonton Center
Mon 12:29:42 AM 64.0333 -118.2667 319° Northwest 210 242 24,000  Level Edmonton Center
Mon 12:30:42 AM 64.0667 -118.3667 307° West 210 242 24,000  Level Edmonton Center
Mon 12:31:42 AM 64.1000 -118.4667 307° West 210 242 24,000  Level Edmonton Center
Mon 12:32:42 AM 64.1333 -118.6000 300° West 210 242 24,000  Level Edmonton Center
Mon 12:33:42 AM 64.1833 -118.7000 319° Northwest 210 242 24,000  Level Edmonton Center
Mon 12:34:42 AM 64.2167 -118.8000 307° West 220 253 24,000  Level Edmonton Center
Mon 12:35:42 AM 64.2667 -118.9000 319° Northwest 210 242 24,000  Level Edmonton Center
Mon 12:37:01 AM 64.3167 -119.0500 308° West 220 253 24,000  Level Edmonton Center
Mon 12:38:01 AM 64.3667 -119.1500 319° Northwest 210 242 24,000  Level Edmonton Center
Mon 12:39:01 AM 64.3833 -119.2500 291° West 210 242 24,000  Level Edmonton Center
Mon 12:40:01 AM 64.4333 -119.3500 319° Northwest 210 242 24,000  Level Edmonton Center
Mon 12:41:01 AM 64.4667 -119.4500 308° West 210 242 24,000  Level Edmonton Center
Mon 12:42:01 AM 64.5167 -119.5500 319° Northwest 210 242 24,000  Level Edmonton Center
Mon 12:43:01 AM 64.5500 -119.6500 308° West 210 242 24,000  Level Edmonton Center
Mon 12:44:01 AM 64.5833 -119.8000 297° West 210 242 24,000  Level Edmonton Center
Mon 12:45:01 AM 64.6333 -119.9000 319° Northwest 220 253 24,000  Level Edmonton Center
Mon 12:46:01 AM 64.6500 -120.0000 291° West 220 253 24,000  Level Edmonton Center
Mon 12:48:00 AM 64.7284 -120.2174 310° West  Level Estimated
Mon 12:55:00 AM 65.0031 -120.9935 310° West  Level FlightAware Approximate
Mon 12:56:00 AM 65.0420 -121.1057 309° West  Level FlightAware Approximate
Mon 12:57:00 AM 65.0809 -121.2182 309° West  Level FlightAware Approximate
Mon 12:58:00 AM 65.1196 -121.3310 309° West  Level FlightAware Approximate
Mon 12:59:00 AM 65.1583 -121.4442 309° West  Level FlightAware Approximate
Mon 01:00:00 AM 65.1969 -121.5576 309° West  Level FlightAware Approximate
Mon 01:01:00 AM 65.2353 -121.6715 309° West  Level FlightAware Approximate
Mon 01:02:00 AM 65.2737 -121.7856 309° West  Level FlightAware Approximate
Mon 01:03:00 AM 65.3121 -121.9001 309° West  Level FlightAware Approximate
Mon 01:04:00 AM 65.3503 -122.0149 309° West  Level FlightAware Approximate
Mon 01:05:00 AM 65.3884 -122.1301 309° West  Level FlightAware Approximate
Mon 01:06:00 AM 65.4265 -122.2456 308° West  Level FlightAware Approximate
Mon 01:07:00 AM 65.4644 -122.3614 308° West  Level FlightAware Approximate
Mon 01:08:00 AM 65.5023 -122.4775 308° West  Level FlightAware Approximate
Mon 01:09:00 AM 65.5401 -122.5940 308° West  Level FlightAware Approximate
Mon 01:10:00 AM 65.5778 -122.7109 308° West  Level FlightAware Approximate
Mon 01:11:00 AM 65.6154 -122.8280 308° West  Level FlightAware Approximate
Mon 01:12:00 AM 65.6529 -122.9455 308° West  Level FlightAware Approximate
Mon 01:13:00 AM 65.6904 -123.0634 308° West  Level FlightAware Approximate
Mon 01:14:00 AM 65.7277 -123.1816 308° West  Level FlightAware Approximate
Mon 01:15:00 AM 65.7650 -123.3001 307° West  Level FlightAware Approximate
Mon 01:16:00 AM 65.8021 -123.4190 307° West  Level FlightAware Approximate
Mon 01:17:00 AM 65.8392 -123.5382 307° West  Level FlightAware Approximate
Mon 01:18:00 AM 65.8761 -123.6578 307° West  Level FlightAware Approximate
Mon 01:19:00 AM 65.9130 -123.7777 307° West  Level FlightAware Approximate
Mon 01:20:00 AM 65.9498 -123.8979 307° West  Level FlightAware Approximate
Mon 01:21:00 AM 65.9865 -124.0185 307° West  Level FlightAware Approximate
Mon 01:22:00 AM 66.0231 -124.1395 307° West  Level FlightAware Approximate
Mon 01:23:00 AM 66.0596 -124.2607 307° West  Level FlightAware Approximate
Mon 01:24:00 AM 66.0960 -124.3824 306° West  Level FlightAware Approximate
Mon 01:25:00 AM 66.1323 -124.5044 306° West  Level FlightAware Approximate
Mon 01:26:00 AM 66.1685 -124.6267 306° West  Level FlightAware Approximate
Mon 01:27:00 AM 66.2046 -124.7494 306° West  Level FlightAware Approximate
Mon 01:28:00 AM 66.2406 -124.8724 306° West  Level FlightAware Approximate
Mon 01:29:00 AM 66.2765 -124.9958 306° West  Level FlightAware Approximate
Mon 01:30:00 AM 66.3123 -125.1196 306° West  Level FlightAware Approximate
Mon 01:31:00 AM 66.3481 -125.2437 306° West  Level FlightAware Approximate
Mon 01:32:00 AM 66.3837 -125.3681 306° West  Level FlightAware Approximate
Mon 01:33:00 AM 66.4192 -125.4929 305° West  Level FlightAware Approximate
Mon 01:34:00 AM 66.4546 -125.6181 305° West  Level FlightAware Approximate
Mon 01:35:00 AM 66.4900 -125.7436 305° West  Level FlightAware Approximate
Mon 01:36:00 AM 66.5252 -125.8695 305° West  Level FlightAware Approximate
Mon 01:37:00 AM 66.5603 -125.9957 305° West  Level FlightAware Approximate
Mon 01:38:00 AM 66.5953 -126.1223 305° West  Level FlightAware Approximate
Mon 01:39:00 AM 66.6302 -126.2492 305° West  Level FlightAware Approximate
Mon 01:40:00 AM 66.6650 -126.3765 305° West  Level FlightAware Approximate
Mon 01:41:00 AM 66.6997 -126.5041 305° West  Level FlightAware Approximate
Mon 01:42:00 AM 66.7344 -126.6321 304° West  Level FlightAware Approximate
Mon 01:43:00 AM 66.7689 -126.7605 304° West  Level FlightAware Approximate
Mon 01:44:00 AM 66.8033 -126.8893 304° West  Level FlightAware Approximate
Mon 01:45:00 AM 66.8375 -127.0183 304° West  Level FlightAware Approximate
Mon 01:46:00 AM 66.8717 -127.1478 304° West  Level FlightAware Approximate
Mon 01:47:00 AM 66.9058 -127.2776 304° West  Level FlightAware Approximate
Mon 01:48:00 AM 66.9398 -127.4078 304° West  Level FlightAware Approximate
Mon 01:49:00 AM 66.9736 -127.5383 304° West  Level FlightAware Approximate
Mon 01:50:00 AM 67.0074 -127.6692 303° West  Level FlightAware Approximate
Mon 01:51:00 AM 67.0411 -127.8005 303° West  Level FlightAware Approximate
Mon 01:52:00 AM 67.0746 -127.9321 303° West  Level FlightAware Approximate
Mon 01:53:00 AM 67.1080 -128.0641 303° West  Level FlightAware Approximate
Mon 01:54:00 AM 67.1414 -128.1965 303° West  Level FlightAware Approximate
Mon 01:55:00 AM 67.1746 -128.3292 303° West  Level FlightAware Approximate
Mon 01:56:00 AM 67.2077 -128.4623 303° West  Level FlightAware Approximate
Mon 01:57:00 AM 67.2407 -128.5958 303° West  Level FlightAware Approximate
Mon 01:58:00 AM 67.2736 -128.7296 303° West  Level FlightAware Approximate
Mon 01:59:00 AM 67.3063 -128.8638 302° West  Level FlightAware Approximate
Mon 02:00:00 AM 67.3390 -128.9983 302° West  Level FlightAware Approximate
Mon 02:01:00 AM 67.3715 -129.1333 302° West  Level FlightAware Approximate
Mon 02:02:00 AM 67.4040 -129.2686 302° West  Level FlightAware Approximate
Mon 02:03:00 AM 67.4363 -129.4042 302° West  Level FlightAware Approximate
Mon 02:04:00 AM 67.4685 -129.5402 302° West  Level FlightAware Approximate
Mon 02:05:00 AM 67.5006 -129.6766 302° West  Level FlightAware Approximate
Mon 02:06:00 AM 67.5326 -129.8134 302° West  Level FlightAware Approximate
Mon 02:07:00 AM 67.5632 -129.9532 300° West  Level FlightAware Approximate
Mon 02:08:00 AM 67.5935 -130.0928 300° West  Level FlightAware Approximate
Mon 02:09:00 AM 67.6237 -130.2328 300° West  Level FlightAware Approximate
Mon 02:10:00 AM 67.6538 -130.3732 299° West  Level FlightAware Approximate
Mon 02:11:00 AM 67.6841 -130.5136 300° West  Level FlightAware Approximate
Mon 02:12:00 AM 67.7143 -130.6540 300° West  Level FlightAware Approximate
Mon 02:13:00 AM 67.7445 -130.7948 300° West  Level FlightAware Approximate
Mon 02:14:00 AM 67.7746 -130.9360 299° West  Level FlightAware Approximate
Mon 02:15:00 AM 67.8045 -131.0775 299° West  Level FlightAware Approximate
Mon 02:16:00 AM 67.8343 -131.2194 299° West  Level FlightAware Approximate
Mon 02:17:00 AM 67.8640 -131.3617 299° West  Level FlightAware Approximate
Mon 02:18:00 AM 67.8935 -131.5043 299° West  Level FlightAware Approximate
Mon 02:19:00 AM 67.9233 -131.6468 300° West  Level FlightAware Approximate
Mon 02:20:00 AM 67.9541 -131.7879 300° West  Level FlightAware Approximate
Mon 02:21:00 AM 67.9848 -131.9294 300° West  Level FlightAware Approximate
Mon 02:22:00 AM 68.0146 -132.0723 298° West  Level FlightAware Approximate
Mon 02:23:00 AM 68.0436 -132.2167 298° West  Level FlightAware Approximate
Mon 02:24:00 AM 68.0725 -132.3614 298° West  Level FlightAware Approximate
Mon 02:25:00 AM 68.1013 -132.5063 299° West  Level FlightAware Approximate
Mon 02:26:00 AM 68.1314 -132.6497 299° West  Level FlightAware Approximate
Mon 02:27:00 AM 68.1613 -132.7935 299° West  Level FlightAware Approximate
Mon 02:28:00 AM 68.1940 -132.9320 312° West  Level FlightAware Approximate
Mon 02:29:00 AM 68.2150 -133.0850 287° West  Level FlightAware Approximate
Mon 02:30:00 AM 68.2477 -133.2240 304° West  Level FlightAware Approximate
Mon 02:31:00 AM 68.2797 -133.3650 298° West  Level FlightAware Approximate
Mon 02:32:00 AM 68.3000 -133.4667 298° West  Level FlightAware Approximate
Mon 02:33:00 AM 68.3042 -133.4828 298° West  Level Estimated
Mon 02:34:00 AM 68.3042 -133.4828 298° West  Level Estimated
Mon 02:35:00 AM 68.3042 -133.4828 298° West  Level Estimated
Mon 02:36:00 AM 68.3042 -133.4828 298° West  Level Estimated
Mon 02:37:00 AM 68.3042 -133.4828 298° West  Level Estimated

Login

Don't have an account? Register now (free) for customized features, flight alerts, and more!